Time;durP1;ratioP1;P1;durP2;ratioP2;P2;SDS_P1;SDS_P2;PMS_P1;PMS_P2;Temp;Humidity;BMP_temperature;BMP_pressure;BME280_temperature;BME280_humidity;BME280_pressure;Samples;Min_cycle;Max_cycle;Signal;HPM_P1;HPM_P2
2022/02/23 00:01:23;;;;;;;15.67;3.63;;;7.50;99.90;;;;;;5059356;28;20446;-43
2022/02/23 00:03:51;;;;;;;6.17;1.90;;;7.50;99.90;;;;;;5060411;28;20473;-50
2022/02/23 00:06:19;;;;;;;2.67;1.10;;;7.50;99.90;;;;;;5060434;28;20450;-52
2022/02/23 00:08:46;;;;;;;4.20;1.00;;;7.40;99.90;;;;;;5060758;28;20510;-49
2022/02/23 00:11:12;;;;;;;6.53;1.13;;;7.40;99.90;;;;;;5060423;28;20500;-65
2022/02/23 00:13:39;;;;;;;8.23;2.07;;;7.40;99.90;;;;;;5060451;28;20483;-58
2022/02/23 00:16:08;;;;;;;5.90;1.47;;;7.40;99.90;;;;;;5059594;28;20506;-51
2022/02/23 00:18:43;;;;;;;4.33;2.30;;;7.30;99.90;;;;;;5059850;28;20438;-48
2022/02/23 00:21:10;;;;;;;4.30;1.70;;;7.30;99.90;;;;;;5059453;28;20419;-49
2022/02/23 00:23:36;;;;;;;2.50;1.23;;;7.30;99.90;;;;;;5059818;28;20487;-44
2022/02/23 00:26:07;;;;;;;4.13;1.53;;;7.30;99.90;;;;;;5059532;28;20455;-42
2022/02/23 00:28:34;;;;;;;10.77;3.57;;;7.30;99.90;;;;;;5059733;28;20442;-52
2022/02/23 00:31:00;;;;;;;6.17;1.83;;;7.30;99.90;;;;;;5059862;28;20474;-53
2022/02/23 00:33:27;;;;;;;6.20;2.57;;;7.20;99.90;;;;;;5059689;28;20476;-49
2022/02/23 00:35:55;;;;;;;13.33;2.17;;;7.20;99.90;;;;;;5059863;28;20471;-48
2022/02/23 00:38:22;;;;;;;9.33;2.03;;;7.20;99.90;;;;;;5059714;28;20441;-52
2022/02/23 00:40:49;;;;;;;13.63;2.47;;;7.20;99.90;;;;;;5059715;28;20467;-49
2022/02/23 00:43:15;;;;;;;7.13;1.80;;;7.10;99.90;;;;;;5059839;28;20438;-53
2022/02/23 00:45:44;;;;;;;11.33;2.50;;;7.20;99.90;;;;;;5060242;28;20566;-46
2022/02/23 00:48:10;;;;;;;5.10;2.60;;;7.20;99.90;;;;;;5059692;28;20422;-53
2022/02/23 00:50:38;;;;;;;3.80;1.37;;;7.10;99.90;;;;;;5059833;28;20476;-45
2022/02/23 00:53:06;;;;;;;3.20;1.50;;;7.10;99.90;;;;;;5058927;28;20528;-52
2022/02/23 00:55:33;;;;;;;4.90;1.60;;;7.10;99.90;;;;;;5059214;28;20433;-63
2022/02/23 00:58:00;;;;;;;4.50;1.43;;;7.10;99.90;;;;;;5058655;28;20476;-51
2022/02/23 01:00:31;;;;;;;4.30;1.60;;;7.00;99.90;;;;;;5059014;28;20500;-51
2022/02/23 01:03:00;;;;;;;9.63;2.40;;;6.90;99.90;;;;;;5059098;28;20425;-50
2022/02/23 01:05:26;;;;;;;2.17;1.80;;;6.80;99.90;;;;;;5059250;28;20464;-47
2022/02/23 01:07:55;;;;;;;2.23;1.47;;;6.60;99.90;;;;;;5059271;28;20442;-50
2022/02/23 01:10:23;;;;;;;5.23;1.60;;;6.60;99.90;;;;;;5059033;28;20778;-49
2022/02/23 01:12:52;;;;;;;11.10;1.33;;;6.50;99.90;;;;;;5058869;28;20498;-48
2022/02/23 01:15:19;;;;;;;6.30;1.80;;;6.40;99.90;;;;;;5058566;28;20475;-50
2022/02/23 01:17:46;;;;;;;8.63;1.97;;;6.30;99.90;;;;;;5058836;28;20445;-49
2022/02/23 01:20:12;;;;;;;10.03;1.20;;;6.30;99.90;;;;;;5058841;28;20441;-48
2022/02/23 01:22:39;;;;;;;11.93;2.13;;;6.30;99.90;;;;;;5058396;28;20472;-45
2022/02/23 01:25:07;;;;;;;14.17;2.60;;;6.40;99.90;;;;;;5058759;28;20463;-52
2022/02/23 01:27:35;;;;;;;11.13;1.70;;;6.40;99.90;;;;;;5058445;28;20432;-46
2022/02/23 01:30:02;;;;;;;17.93;2.20;;;6.40;99.90;;;;;;5058248;28;20449;-45
2022/02/23 01:32:31;;;;;;;4.63;2.43;;;6.40;99.90;;;;;;5058122;28;20467;-44
2022/02/23 01:34:57;;;;;;;10.23;2.47;;;6.40;99.90;;;;;;5057924;28;20452;-44
2022/02/23 01:37:27;;;;;;;5.00;1.93;;;6.50;99.90;;;;;;5058246;28;20459;-44
2022/02/23 01:39:55;;;;;;;15.13;2.23;;;6.50;99.90;;;;;;5058643;28;20472;-46
2022/02/23 01:42:22;;;;;;;10.13;1.67;;;6.50;99.90;;;;;;5058129;28;20444;-43
2022/02/23 01:44:50;;;;;;;7.80;1.70;;;6.50;99.90;;;;;;5057979;28;20425;-46
2022/02/23 01:47:16;;;;;;;17.57;2.30;;;6.50;99.90;;;;;;5058131;28;20457;-42
2022/02/23 01:49:43;;;;;;;2.50;1.80;;;6.50;99.90;;;;;;5057891;28;20482;-47
2022/02/23 01:52:10;;;;;;;8.83;2.10;;;6.50;99.90;;;;;;5057993;28;20479;-43
2022/02/23 01:54:37;;;;;;;6.33;1.97;;;6.60;99.90;;;;;;5056929;28;20440;-48
2022/02/23 01:57:04;;;;;;;9.70;1.67;;;6.60;99.90;;;;;;5058487;28;20443;-57
2022/02/23 01:59:32;;;;;;;5.43;1.90;;;6.60;99.90;;;;;;5057993;28;20453;-57
2022/02/23 02:02:02;;;;;;;5.47;1.80;;;6.60;99.90;;;;;;5058321;28;20413;-56
2022/02/23 02:04:29;;;;;;;14.50;1.93;;;6.70;99.90;;;;;;5057807;28;20478;-57
2022/02/23 02:06:55;;;;;;;4.70;2.00;;;6.70;99.90;;;;;;5057785;28;20460;-44
2022/02/23 02:09:22;;;;;;;15.57;2.93;;;6.70;99.90;;;;;;5057598;28;20452;-47
2022/02/23 02:11:48;;;;;;;4.10;2.33;;;6.70;99.90;;;;;;5057176;28;20458;-42
2022/02/23 02:14:15;;;;;;;11.70;2.53;;;6.70;99.90;;;;;;5057583;28;20482;-49
2022/02/23 02:16:42;;;;;;;17.17;4.13;;;6.70;99.90;;;;;;5057574;28;20444;-48
2022/02/23 02:19:10;;;;;;;7.67;1.70;;;6.70;99.90;;;;;;5057304;28;20437;-44
2022/02/23 02:21:54;;;;;;;10.43;1.70;;;6.70;99.90;;;;;;5057546;28;20468;-44
2022/02/23 02:24:22;;;;;;;7.23;2.07;;;6.70;99.90;;;;;;5057272;28;20456;-45
2022/02/23 02:26:49;;;;;;;17.53;2.40;;;6.70;99.90;;;;;;5057012;28;20442;-46
2022/02/23 02:29:16;;;;;;;10.10;2.10;;;6.70;99.90;;;;;;5057190;28;20452;-46
2022/02/23 02:31:43;;;;;;;26.13;4.63;;;6.70;99.90;;;;;;5056965;28;20458;-49
2022/02/23 02:34:10;;;;;;;7.80;2.50;;;6.70;99.90;;;;;;5057021;28;20512;-44
2022/02/23 02:36:36;;;;;;;4.90;1.80;;;6.70;99.90;;;;;;5056625;28;20466;-50
2022/02/23 02:39:06;;;;;;;9.23;3.20;;;6.60;99.90;;;;;;5057092;28;20433;-50
2022/02/23 02:41:32;;;;;;;6.60;2.77;;;6.60;99.90;;;;;;5056898;28;20479;-47
2022/02/23 02:43:59;;;;;;;11.03;2.20;;;6.50;99.90;;;;;;5057014;28;20468;-43
2022/02/23 02:46:26;;;;;;;13.17;2.23;;;6.50;99.90;;;;;;5057227;28;20436;-49
2022/02/23 02:48:53;;;;;;;10.13;2.37;;;6.50;99.90;;;;;;5056894;28;20457;-42
2022/02/23 02:51:19;;;;;;;6.30;1.70;;;6.40;99.90;;;;;;5057097;28;20449;-44
2022/02/23 02:53:48;;;;;;;8.87;2.07;;;6.40;99.90;;;;;;5059337;28;20507;-47
2022/02/23 02:56:18;;;;;;;13.67;2.00;;;6.40;99.90;;;;;;5067211;28;20451;-47
2022/02/23 02:58:49;;;;;;;10.57;3.30;;;6.40;99.90;;;;;;5063008;28;20437;-50
2022/02/23 03:01:16;;;;;;;15.33;2.60;;;6.30;99.90;;;;;;5060330;28;20491;-47
2022/02/23 03:03:43;;;;;;;5.63;2.00;;;6.30;99.90;;;;;;5068352;28;20421;-52
2022/02/23 03:06:09;;;;;;;9.70;2.80;;;6.30;99.90;;;;;;5061920;28;20453;-51
2022/02/23 03:08:36;;;;;;;14.00;3.07;;;6.30;99.90;;;;;;5070759;28;20456;-52
2022/02/23 03:11:03;;;;;;;10.23;2.43;;;6.30;99.90;;;;;;5066397;28;20464;-48
2022/02/23 03:13:31;;;;;;;7.60;1.80;;;6.20;99.90;;;;;;5066096;28;20484;-53
2022/02/23 03:15:59;;;;;;;13.77;2.20;;;6.30;99.90;;;;;;5064656;28;20468;-51
2022/02/23 03:18:28;;;;;;;7.23;2.10;;;6.30;99.90;;;;;;5065086;28;20510;-53
2022/02/23 03:20:55;;;;;;;7.27;1.37;;;6.30;99.90;;;;;;5067838;28;20440;-48
2022/02/23 03:23:22;;;;;;;12.90;4.17;;;6.20;99.90;;;;;;5066878;28;20459;-45
2022/02/23 03:25:49;;;;;;;5.93;1.63;;;6.30;99.90;;;;;;5066453;28;20449;-46
2022/02/23 03:28:16;;;;;;;15.00;1.50;;;6.30;99.90;;;;;;5068290;28;20462;-42
2022/02/23 03:30:46;;;;;;;3.77;2.57;;;6.30;99.90;;;;;;5067931;28;20487;-52
2022/02/23 03:33:12;;;;;;;7.57;1.63;;;6.30;99.90;;;;;;5064720;28;20457;-50
2022/02/23 03:35:41;;;;;;;5.47;1.83;;;6.30;99.90;;;;;;5060038;28;20433;-52
2022/02/23 03:38:11;;;;;;;11.93;3.80;;;6.30;99.90;;;;;;5068212;28;20434;-44
2022/02/23 03:40:38;;;;;;;8.10;1.50;;;6.30;99.90;;;;;;5062298;28;20441;-50
2022/02/23 03:43:08;;;;;;;2.80;1.37;;;6.30;99.90;;;;;;5065823;28;20448;-45
2022/02/23 03:45:35;;;;;;;4.43;1.67;;;6.30;99.90;;;;;;5066836;28;20456;-42
2022/02/23 03:48:04;;;;;;;12.27;2.03;;;6.30;99.90;;;;;;5062606;28;20459;-44
2022/02/23 03:50:31;;;;;;;7.40;1.60;;;6.20;99.90;;;;;;5067581;28;20465;-49
2022/02/23 03:52:58;;;;;;;9.63;2.80;;;6.10;99.90;;;;;;5064570;28;20432;-45
2022/02/23 03:55:24;;;;;;;8.13;2.40;;;6.10;99.90;;;;;;5065237;28;20490;-47
2022/02/23 03:57:53;;;;;;;7.07;2.50;;;6.20;99.90;;;;;;5066624;28;20428;-47
2022/02/23 04:00:19;;;;;;;10.70;2.10;;;6.20;99.90;;;;;;5068533;28;20453;-47
2022/02/23 04:02:47;;;;;;;5.73;2.70;;;6.20;99.90;;;;;;5072937;28;20442;-44
2022/02/23 04:05:15;;;;;;;2.80;1.50;;;6.20;99.90;;;;;;5076054;28;20443;-51
2022/02/23 04:07:41;;;;;;;6.77;2.23;;;6.20;99.90;;;;;;5075848;28;20492;-48
2022/02/23 04:10:09;;;;;;;11.30;1.70;;;6.30;99.90;;;;;;5075821;28;20454;-48
2022/02/23 04:12:36;;;;;;;3.03;1.63;;;6.30;99.90;;;;;;5067317;28;20437;-44
2022/02/23 04:15:04;;;;;;;6.77;2.00;;;6.20;99.90;;;;;;5065792;28;20497;-45
2022/02/23 04:17:31;;;;;;;10.93;1.30;;;6.20;99.90;;;;;;5067419;28;20452;-43
2022/02/23 04:19:58;;;;;;;4.80;1.20;;;6.00;99.90;;;;;;5065341;28;20448;-44
2022/02/23 04:22:26;;;;;;;4.90;1.60;;;6.00;99.90;;;;;;5069891;28;20428;-44
2022/02/23 04:24:53;;;;;;;2.40;1.50;;;5.90;99.90;;;;;;5068266;28;20472;-49
2022/02/23 04:27:19;;;;;;;9.33;3.10;;;5.90;99.90;;;;;;5065147;28;20428;-51
2022/02/23 04:29:49;;;;;;;2.50;1.07;;;5.80;99.90;;;;;;5065857;28;20437;-50
2022/02/23 04:32:16;;;;;;;8.83;1.47;;;5.80;99.90;;;;;;5062592;28;20464;-51
2022/02/23 04:34:42;;;;;;;8.57;1.20;;;5.80;99.90;;;;;;5070832;28;20521;-50
2022/02/23 04:37:09;;;;;;;12.53;3.10;;;5.70;99.90;;;;;;5048632;28;20480;-51
2022/02/23 04:39:37;;;;;;;2.80;1.43;;;5.70;99.90;;;;;;5048145;28;20447;-50
2022/02/23 04:42:08;;;;;;;5.40;2.87;;;5.70;99.90;;;;;;5048955;28;20453;-44
2022/02/23 04:44:35;;;;;;;9.93;2.07;;;5.70;99.90;;;;;;5047926;28;20930;-52
2022/02/23 04:47:02;;;;;;;6.00;1.73;;;5.70;99.90;;;;;;5051011;28;20441;-54
2022/02/23 04:49:29;;;;;;;7.40;1.70;;;5.70;99.90;;;;;;5052613;28;20456;-53
2022/02/23 04:51:55;;;;;;;4.10;1.37;;;5.70;99.90;;;;;;5053153;28;20429;-53
2022/02/23 04:54:25;;;;;;;10.90;1.37;;;5.60;99.90;;;;;;5051888;28;20480;-55
2022/02/23 04:56:56;;;;;;;5.63;2.10;;;5.60;99.90;;;;;;5051827;28;20469;-49
2022/02/23 04:59:23;;;;;;;7.23;3.47;;;6.90;99.90;;;;;;5052625;28;20447;-46
2022/02/23 05:01:50;;;;;;;12.80;1.90;;;5.60;99.90;;;;;;5053502;28;20461;-54
2022/02/23 05:04:16;;;;;;;21.37;2.60;;;5.60;99.90;;;;;;5052802;28;20471;-52
2022/02/23 05:06:43;;;;;;;7.40;1.77;;;5.60;99.90;;;;;;5052414;28;20466;-49
2022/02/23 05:09:10;;;;;;;11.17;2.80;;;5.60;99.90;;;;;;5052651;28;20472;-49
2022/02/23 05:11:38;;;;;;;19.23;3.30;;;5.70;99.90;;;;;;5051735;28;20439;-52
2022/02/23 05:14:06;;;;;;;7.27;2.40;;;5.70;99.90;;;;;;5051638;28;20556;-53
2022/02/23 05:16:33;;;;;;;13.73;2.87;;;5.70;99.90;;;;;;5049879;28;20475;-46
2022/02/23 05:18:59;;;;;;;6.40;2.60;;;5.80;99.90;;;;;;5051713;28;20444;-48
2022/02/23 05:21:26;;;;;;;7.53;2.23;;;5.80;99.90;;;;;;5051553;28;20483;-43
2022/02/23 05:23:53;;;;;;;15.63;3.40;;;5.80;99.90;;;;;;5050797;28;20464;-52
2022/02/23 05:26:19;;;;;;;9.40;3.20;;;5.80;99.90;;;;;;5049387;28;20480;-47
2022/02/23 05:28:46;;;;;;;2.90;1.30;;;5.80;99.90;;;;;;5049244;28;20445;-49
2022/02/23 05:31:14;;;;;;;7.70;2.17;;;5.80;99.90;;;;;;5050257;28;20456;-54
2022/02/23 05:33:41;;;;;;;11.47;2.50;;;5.80;99.90;;;;;;5050701;28;20546;-50
2022/02/23 05:36:07;;;;;;;6.53;1.40;;;5.80;99.90;;;;;;5051284;28;20449;-51
2022/02/23 05:38:34;;;;;;;8.87;1.77;;;5.80;99.90;;;;;;5051280;28;20472;-50
2022/02/23 05:41:03;;;;;;;12.07;3.13;;;5.80;99.90;;;;;;5051371;28;20460;-52
2022/02/23 05:43:31;;;;;;;3.43;1.80;;;5.80;99.90;;;;;;5051189;28;20448;-46
2022/02/23 05:45:58;;;;;;;9.43;2.20;;;5.80;99.90;;;;;;5051419;28;20553;-51
2022/02/23 05:48:26;;;;;;;14.47;3.83;;;5.80;99.90;;;;;;5052039;28;20446;-51
2022/02/23 05:50:52;;;;;;;8.80;2.10;;;5.80;99.90;;;;;;5051348;28;20502;-47
2022/02/23 05:53:19;;;;;;;8.73;2.27;;;5.80;99.90;;;;;;5050999;28;20444;-50
2022/02/23 05:55:45;;;;;;;9.43;1.90;;;5.80;99.90;;;;;;5050058;28;20438;-49
2022/02/23 05:58:12;;;;;;;4.33;2.17;;;5.80;99.90;;;;;;5051618;28;20483;-48
2022/02/23 06:00:39;;;;;;;11.20;3.10;;;5.80;99.90;;;;;;5051174;28;20433;-49
2022/02/23 06:03:08;;;;;;;10.13;3.20;;;5.80;99.90;;;;;;5050456;28;20469;-51
2022/02/23 06:05:36;;;;;;;11.70;2.60;;;5.70;99.90;;;;;;5050366;28;20850;-48
2022/02/23 06:08:02;;;;;;;9.63;3.23;;;5.80;99.90;;;;;;5049886;28;20465;-53
2022/02/23 06:10:29;;;;;;;6.57;1.80;;;5.80;99.90;;;;;;5050345;28;20444;-52
2022/02/23 06:12:57;;;;;;;5.67;1.63;;;5.80;99.90;;;;;;5049567;28;20527;-51
2022/02/23 06:15:24;;;;;;;16.50;2.43;;;5.80;99.90;;;;;;5050125;28;20495;-53
2022/02/23 06:17:51;;;;;;;5.60;1.87;;;5.80;99.90;;;;;;5048673;28;20472;-51
2022/02/23 06:20:18;;;;;;;6.13;1.93;;;5.80;99.90;;;;;;5047863;28;20425;-52
2022/02/23 06:22:46;;;;;;;11.17;2.10;;;5.90;99.90;;;;;;5049073;28;20499;-52
2022/02/23 06:25:13;;;;;;;4.37;1.43;;;5.90;99.90;;;;;;5049460;28;20464;-35
2022/02/23 06:27:43;;;;;;;7.40;1.80;;;6.00;99.90;;;;;;5059217;28;20444;-38
2022/02/23 06:30:10;;;;;;;4.90;2.00;;;6.00;99.90;;;;;;5059452;28;20409;-35
2022/02/23 06:32:37;;;;;;;4.30;2.23;;;6.10;99.90;;;;;;5059276;28;20468;-37
2022/02/23 06:35:05;;;;;;;7.30;2.07;;;6.10;99.90;;;;;;5059101;28;20448;-35
2022/02/23 06:37:34;;;;;;;7.40;2.37;;;6.10;99.90;;;;;;5059148;28;20466;-37
2022/02/23 06:40:02;;;;;;;16.43;2.73;;;6.10;99.90;;;;;;5059069;28;20405;-40
2022/02/23 06:42:31;;;;;;;11.38;2.53;;;6.20;99.90;;;;;;5058629;28;20421;-41
2022/02/23 06:45:02;;;;;;;4.33;1.50;;;6.20;99.90;;;;;;5058977;28;20210;-43
2022/02/23 06:47:40;;;;;;;6.40;1.83;;;6.10;99.90;;;;;;5059092;28;20464;-42
2022/02/23 06:50:07;;;;;;;11.63;2.13;;;6.10;99.90;;;;;;5059073;28;20409;-43
2022/02/23 06:52:38;;;;;;;15.70;2.80;;;6.10;99.90;;;;;;5058880;28;20421;-42
2022/02/23 06:55:11;;;;;;;7.50;1.90;;;6.00;99.90;;;;;;5058937;28;20440;-47
2022/02/23 06:57:38;;;;;;;10.90;1.77;;;6.00;99.90;;;;;;5058453;28;20449;-40
2022/02/23 07:00:07;;;;;;;10.57;2.33;;;6.00;99.90;;;;;;5058757;28;20425;-42
2022/02/23 07:02:34;;;;;;;19.73;3.27;;;6.00;99.90;;;;;;5058811;28;20410;-43
2022/02/23 07:05:01;;;;;;;9.10;1.80;;;6.10;99.90;;;;;;5058841;28;20428;-45
2022/02/23 07:07:28;;;;;;;7.90;2.20;;;6.10;99.90;;;;;;5058666;28;20434;-43
2022/02/23 07:09:54;;;;;;;10.80;2.40;;;6.00;99.90;;;;;;5058581;28;20479;-40
2022/02/23 07:12:22;;;;;;;8.07;2.30;;;6.10;99.90;;;;;;5058716;28;20443;-41
2022/02/23 07:14:49;;;;;;;6.40;2.20;;;6.00;99.90;;;;;;5058409;28;20530;-42
2022/02/23 07:17:17;;;;;;;7.07;1.93;;;6.00;99.90;;;;;;5058553;28;20443;-38
2022/02/23 07:19:44;;;;;;;5.60;1.47;;;6.00;99.90;;;;;;5058465;28;20472;-38
2022/02/23 07:22:11;;;;;;;13.93;3.20;;;6.00;99.90;;;;;;5058519;28;20447;-41
2022/02/23 07:24:40;;;;;;;5.57;2.07;;;6.00;99.90;;;;;;5058382;28;20483;-41
2022/02/23 07:27:12;;;;;;;10.33;2.40;;;6.10;99.90;;;;;;5058567;28;20432;-42
2022/02/23 07:29:45;;;;;;;14.30;2.43;;;6.10;99.90;;;;;;5058288;28;20440;-40
2022/02/23 07:32:12;;;;;;;5.43;2.20;;;6.10;99.90;;;;;;5058291;28;20437;-40
2022/02/23 07:34:40;;;;;;;11.27;2.43;;;6.20;99.90;;;;;;5058240;28;20475;-41
2022/02/23 07:37:08;;;;;;;9.60;1.83;;;6.20;99.90;;;;;;5058548;28;20445;-41
2022/02/23 07:39:38;;;;;;;4.30;2.17;;;6.20;99.90;;;;;;5058140;28;20456;-41
2022/02/23 07:42:08;;;;;;;4.70;1.93;;;6.20;99.90;;;;;;5058402;28;20408;-44
2022/02/23 07:44:35;;;;;;;7.87;3.00;;;6.20;99.90;;;;;;5058380;28;20436;-38
2022/02/23 07:47:09;;;;;;;9.50;3.70;;;6.20;99.90;;;;;;5058252;28;20428;-41
2022/02/23 07:49:36;;;;;;;3.73;1.80;;;6.30;99.90;;;;;;5058125;28;20444;-42
2022/02/23 07:52:03;;;;;;;6.97;2.27;;;6.40;99.90;;;;;;5058567;28;20433;-44
2022/02/23 07:54:30;;;;;;;19.87;2.50;;;6.40;99.90;;;;;;5062161;28;20466;-43
2022/02/23 07:57:00;;;;;;;9.60;3.37;;;6.40;99.90;;;;;;5062158;28;20455;-43
2022/02/23 07:59:28;;;;;;;7.60;3.60;;;6.50;99.90;;;;;;5061900;28;20442;-45
2022/02/23 08:01:55;;;;;;;7.00;1.87;;;6.60;99.90;;;;;;5062107;28;20443;-44
2022/02/23 08:04:23;;;;;;;5.87;1.17;;;6.60;99.90;;;;;;5061959;28;20441;-44
2022/02/23 08:06:53;;;;;;;5.00;1.60;;;6.60;99.90;;;;;;5062042;28;20451;-44
2022/02/23 08:09:19;;;;;;;13.13;2.10;;;6.70;99.90;;;;;;5061580;28;20447;-41
2022/02/23 08:11:49;;;;;;;13.67;2.17;;;6.80;99.90;;;;;;5061686;28;20448;-41
2022/02/23 08:14:16;;;;;;;6.27;1.97;;;6.90;99.90;;;;;;5061664;28;20487;-43
2022/02/23 08:19:34;;;;;;;8.93;1.93;;;7.00;99.90;;;;;;5061778;28;20432;-41
2022/02/23 08:22:04;;;;;;;20.77;2.17;;;7.00;99.90;;;;;;5061611;28;20441;-40
2022/02/23 08:24:32;;;;;;;11.77;2.30;;;7.10;99.90;;;;;;5061646;28;20443;-44
2022/02/23 08:27:03;;;;;;;7.87;2.43;;;7.10;99.90;;;;;;5061523;28;20431;-43
2022/02/23 08:29:29;;;;;;;8.90;2.27;;;7.10;99.90;;;;;;5061453;28;20439;-39
2022/02/23 08:31:59;;;;;;;6.17;2.20;;;7.10;99.90;;;;;;5061368;28;20425;-39
2022/02/23 08:34:28;;;;;;;9.83;2.67;;;7.10;99.90;;;;;;5061375;28;20483;-42
2022/02/23 08:36:56;;;;;;;8.13;3.30;;;7.10;99.90;;;;;;5061405;28;20419;-45
2022/02/23 08:39:24;;;;;;;11.30;2.00;;;7.20;99.90;;;;;;5061347;28;20453;-42
2022/02/23 08:41:53;;;;;;;5.23;1.70;;;7.30;99.90;;;;;;5061326;28;20412;-41
2022/02/23 08:44:20;;;;;;;7.53;1.90;;;7.40;99.90;;;;;;5061167;28;20475;-47
2022/02/23 08:46:47;;;;;;;5.07;1.93;;;7.60;99.90;;;;;;5059659;28;20444;-52
2022/02/23 08:49:14;;;;;;;3.90;1.77;;;7.60;99.90;;;;;;5058021;28;20448;-52
2022/02/23 08:51:43;;;;;;;6.90;1.43;;;7.70;99.90;;;;;;5057520;28;20425;-51
2022/02/23 08:54:12;;;;;;;3.13;2.03;;;7.70;99.90;;;;;;5046473;28;20452;-57
2022/02/23 08:56:38;;;;;;;7.53;2.13;;;7.60;99.90;;;;;;5037523;28;20498;-55
2022/02/23 08:59:06;;;;;;;18.37;2.53;;;7.60;99.90;;;;;;5037171;28;20449;-52
2022/02/23 09:01:35;;;;;;;67.50;3.10;;;7.60;99.90;;;;;;5037084;28;20484;-53
2022/02/23 09:04:03;;;;;;;10.33;1.57;;;7.60;99.90;;;;;;5037163;28;20452;-56
2022/02/23 09:06:32;;;;;;;3.93;2.03;;;7.60;99.90;;;;;;5037525;28;20524;-56
2022/02/23 09:08:59;;;;;;;13.80;3.03;;;7.60;99.90;;;;;;5037271;28;20472;-54
2022/02/23 09:11:27;;;;;;;3.20;2.23;;;7.70;99.90;;;;;;5037057;28;20461;-54
2022/02/23 09:13:54;;;;;;;9.10;2.00;;;7.80;99.90;;;;;;5037188;28;20505;-54
2022/02/23 09:16:21;;;;;;;8.87;2.30;;;8.00;99.90;;;;;;5037688;28;20514;-63
2022/02/23 09:18:48;;;;;;;10.57;2.33;;;8.10;99.90;;;;;;5037876;28;20490;-51
2022/02/23 09:21:15;;;;;;;9.30;1.47;;;8.10;99.90;;;;;;5036820;28;20457;-49
2022/02/23 09:23:43;;;;;;;5.80;1.43;;;8.00;99.90;;;;;;5037127;28;20452;-50
2022/02/23 09:26:10;;;;;;;5.40;1.93;;;8.00;99.90;;;;;;5037237;28;20462;-52
2022/02/23 09:28:38;;;;;;;8.57;1.67;;;7.90;99.90;;;;;;5037048;28;20445;-50
2022/02/23 09:31:07;;;;;;;6.83;2.40;;;7.90;99.90;;;;;;5036890;28;20472;-52
2022/02/23 09:33:34;;;;;;;6.10;1.73;;;7.90;99.90;;;;;;5038505;28;20449;-51
2022/02/23 09:36:03;;;;;;;3.80;2.47;;;8.00;99.90;;;;;;5036941;28;21019;-50
2022/02/23 09:38:30;;;;;;;10.63;2.60;;;8.20;99.90;;;;;;5036618;28;20476;-55
2022/02/23 09:40:59;;;;;;;8.63;2.30;;;8.40;99.90;;;;;;5036591;28;20895;-55
2022/02/23 09:43:26;;;;;;;12.07;2.83;;;8.70;99.90;;;;;;5036860;28;20468;-53
2022/02/23 09:45:56;;;;;;;4.63;2.00;;;8.90;99.90;;;;;;5036693;28;20479;-51
2022/02/23 09:48:24;;;;;;;4.17;1.50;;;9.00;99.90;;;;;;5036400;28;20447;-55
2022/02/23 09:50:52;;;;;;;8.60;2.67;;;9.00;99.90;;;;;;5036533;28;20474;-55
2022/02/23 09:53:21;;;;;;;8.20;2.47;;;8.90;99.90;;;;;;5036564;28;20475;-53
2022/02/23 09:55:48;;;;;;;8.97;1.50;;;9.00;99.90;;;;;;5036397;28;20500;-53
2022/02/23 09:58:15;;;;;;;5.70;1.87;;;9.20;99.90;;;;;;5036801;28;20998;-50
2022/02/23 10:00:42;;;;;;;8.40;2.40;;;9.80;99.90;;;;;;5037575;28;20531;-53
2022/02/23 10:03:10;;;;;;;4.23;1.60;;;10.50;99.90;;;;;;5036318;28;20937;-56
2022/02/23 10:05:38;;;;;;;8.10;2.00;;;11.40;99.90;;;;;;5036046;28;20468;-55
2022/02/23 10:08:06;;;;;;;11.00;2.37;;;12.20;99.90;;;;;;5036152;28;20472;-54
2022/02/23 10:10:35;;;;;;;10.53;2.20;;;12.90;99.90;;;;;;5036008;28;20487;-54
2022/02/23 10:13:04;;;;;;;6.13;1.83;;;13.80;99.90;;;;;;5035989;28;20519;-54
2022/02/23 10:15:31;;;;;;;4.07;2.20;;;14.10;99.90;;;;;;5035531;28;20524;-49
2022/02/23 10:18:07;;;;;;;6.50;2.43;;;14.40;99.90;;;;;;5035798;28;20474;-49
2022/02/23 10:20:40;;;;;;;6.30;1.67;;;14.00;99.60;;;;;;5036728;28;20503;-53
2022/02/23 10:23:15;;;;;;;8.33;2.90;;;14.00;97.50;;;;;;5037768;28;20470;-55
2022/02/23 10:25:43;;;;;;;5.67;2.10;;;14.00;96.90;;;;;;5035731;28;20576;-52
2022/02/23 10:28:12;;;;;;;3.73;1.43;;;13.80;96.40;;;;;;5035890;28;20460;-51
2022/02/23 10:30:46;;;;;;;8.50;2.47;;;12.90;97.70;;;;;;5035752;28;20523;-53
2022/02/23 10:33:14;;;;;;;4.93;2.30;;;12.70;99.50;;;;;;5036014;28;20456;-54
2022/02/23 10:35:52;;;;;;;10.83;1.87;;;12.20;99.90;;;;;;5035717;28;20511;-52
2022/02/23 10:38:23;;;;;;;2.10;1.03;;;11.70;99.90;;;;;;5037451;28;20518;-55
2022/02/23 10:40:51;;;;;;;7.00;1.93;;;11.80;99.90;;;;;;5035994;28;20468;-52
2022/02/23 10:43:27;;;;;;;5.33;1.50;;;11.00;99.90;;;;;;5035615;28;20479;-52
2022/02/23 10:46:03;;;;;;;11.13;1.93;;;10.70;99.90;;;;;;5036139;28;20558;-57
2022/02/23 10:48:35;;;;;;;4.97;1.20;;;10.40;99.90;;;;;;5035280;28;20435;-55
2022/02/23 10:51:05;;;;;;;9.60;1.93;;;10.20;99.90;;;;;;5035313;28;20483;-56
2022/02/23 10:53:33;;;;;;;6.47;2.10;;;10.20;99.90;;;;;;5035059;28;20448;-53
2022/02/23 10:56:02;;;;;;;4.87;1.50;;;9.80;99.90;;;;;;5034993;28;20579;-53
2022/02/23 10:58:30;;;;;;;8.13;1.80;;;9.80;99.90;;;;;;5035721;28;20514;-54
2022/02/23 11:01:04;;;;;;;4.40;2.10;;;9.70;99.90;;;;;;5036089;28;20491;-54
2022/02/23 11:03:31;;;;;;;12.37;2.13;;;9.80;99.90;;;;;;5035148;28;20839;-56
2022/02/23 11:05:58;;;;;;;7.53;1.50;;;10.30;99.90;;;;;;5034992;28;20472;-52
2022/02/23 11:08:27;;;;;;;3.67;1.20;;;10.60;99.90;;;;;;5034846;28;20469;-51
2022/02/23 11:10:54;;;;;;;7.63;1.63;;;10.40;99.90;;;;;;5035304;28;20472;-53
2022/02/23 11:13:22;;;;;;;9.33;1.80;;;10.40;99.90;;;;;;5035121;28;20449;-55
2022/02/23 11:15:49;;;;;;;6.00;1.80;;;10.60;99.90;;;;;;5036335;28;20528;-54
2022/02/23 11:18:17;;;;;;;14.27;2.27;;;10.50;99.90;;;;;;5035227;28;20448;-50
2022/02/23 11:20:46;;;;;;;7.47;2.10;;;10.60;99.90;;;;;;5034861;28;20472;-54
2022/02/23 11:23:18;;;;;;;4.70;1.60;;;10.80;99.90;;;;;;5034751;28;20453;-52
2022/02/23 11:25:48;;;;;;;7.13;2.20;;;10.70;99.90;;;;;;5034804;28;20541;-51
2022/02/23 11:28:21;;;;;;;7.73;2.50;;;10.90;99.90;;;;;;5034135;28;20496;-50
2022/02/23 11:30:50;;;;;;;9.47;2.20;;;11.10;99.90;;;;;;5034986;28;20538;-51
2022/02/23 11:33:22;;;;;;;8.80;2.67;;;11.10;99.90;;;;;;5035050;28;20862;-52
2022/02/23 11:35:49;;;;;;;9.33;2.73;;;11.10;99.90;;;;;;5034628;28;20492;-54
2022/02/23 11:38:18;;;;;;;12.17;1.70;;;11.00;99.90;;;;;;5034613;28;20425;-54
2022/02/23 11:40:50;;;;;;;8.67;2.23;;;11.10;99.90;;;;;;5035272;28;20448;-50
2022/02/23 11:43:27;;;;;;;9.43;2.30;;;11.20;99.90;;;;;;5036074;28;20433;-54
2022/02/23 11:46:13;;;;;;;5.30;2.87;;;11.30;99.90;;;;;;5034510;28;20570;-50
2022/02/23 11:52:09;;;;;;;9.33;2.20;;;11.20;99.90;;;;;;5034570;28;20459;-52
2022/02/23 11:57:58;;;;;;;3.90;1.60;;;10.90;99.90;;;;;;5034408;28;20447;-53
2022/02/23 12:00:58;;;;;;;4.63;1.50;;;10.70;99.90;;;;;;5035323;28;20842;-57
2022/02/23 12:03:28;;;;;;;2.80;1.67;;;10.40;99.90;;;;;;5035834;28;20448;-54
2022/02/23 12:05:59;;;;;;;7.53;2.20;;;10.00;99.90;;;;;;5034375;28;20791;-53
2022/02/23 12:08:44;;;;;;;4.90;1.80;;;9.80;99.90;;;;;;5034723;28;20870;-51
2022/02/23 12:11:42;;;;;;;6.50;2.50;;;9.70;99.90;;;;;;5035201;28;20476;-48
2022/02/23 12:14:10;;;;;;;3.87;1.90;;;9.60;99.90;;;;;;5034684;28;20769;-54
2022/02/23 12:16:48;;;;;;;3.73;1.17;;;9.60;99.90;;;;;;5034373;28;20579;-53
2022/02/23 12:19:15;;;;;;;4.80;2.17;;;9.40;99.90;;;;;;5034289;28;20447;-50
2022/02/23 12:21:44;;;;;;;6.20;1.80;;;9.30;99.90;;;;;;5036531;28;20535;-57
2022/02/23 12:24:14;;;;;;;9.17;1.80;;;9.20;99.90;;;;;;5035549;28;20464;-54
2022/02/23 12:26:42;;;;;;;8.97;2.00;;;9.20;99.90;;;;;;5034357;28;20468;-48
2022/02/23 12:29:13;;;;;;;5.00;2.20;;;9.20;99.90;;;;;;5034317;28;20448;-55
2022/02/23 12:31:44;;;;;;;10.67;1.70;;;9.30;99.90;;;;;;5034157;28;20500;-53
2022/02/23 12:34:14;;;;;;;14.80;1.80;;;9.40;99.90;;;;;;5034382;28;20458;-49
2022/02/23 12:36:46;;;;;;;8.20;2.47;;;9.40;99.90;;;;;;5034200;28;20961;-52
2022/02/23 12:39:14;;;;;;;6.97;1.60;;;9.60;99.90;;;;;;5036467;28;20443;-54
2022/02/23 12:41:42;;;;;;;2.30;1.33;;;9.70;99.90;;;;;;5038665;28;20793;-52
2022/02/23 12:44:12;;;;;;;8.90;2.40;;;9.90;99.90;;;;;;5040450;28;20455;-60
2022/02/23 12:46:41;;;;;;;9.83;2.10;;;10.00;99.90;;;;;;5039035;28;20469;-53
2022/02/23 12:49:09;;;;;;;5.93;1.57;;;10.20;99.90;;;;;;5037843;28;20453;-52
2022/02/23 12:51:37;;;;;;;14.00;3.00;;;10.40;99.90;;;;;;5037505;28;20542;-56
2022/02/23 12:54:06;;;;;;;9.53;2.63;;;10.60;99.90;;;;;;5037658;28;20516;-51
2022/02/23 12:56:38;;;;;;;9.43;2.20;;;10.60;99.90;;;;;;5038135;28;20554;-59
2022/02/23 12:59:08;;;;;;;6.33;1.63;;;10.70;99.90;;;;;;5037603;28;20507;-54
2022/02/23 13:01:39;;;;;;;13.07;1.87;;;10.70;99.90;;;;;;5037242;28;20484;-54
2022/02/23 13:04:08;;;;;;;5.80;4.30;;;10.40;99.90;;;;;;5037402;28;20536;-52
2022/02/23 13:06:37;;;;;;;6.37;2.00;;;10.40;99.90;;;;;;5037128;28;20795;-52
2022/02/23 13:09:06;;;;;;;5.70;1.83;;;10.20;99.90;;;;;;5037415;28;20429;-55